Time;durP1;ratioP1;P1;durP2;ratioP2;P2;SDS_P1;SDS_P2;PMS_P1;PMS_P2;Temp;Humidity;BMP_temperature;BMP_pressure;BME280_temperature;BME280_humidity;BME280_pressure;Samples;Min_cycle;Max_cycle;Signal;HPM_P1;HPM_P2
2023/06/24 00:00:12;;;;;;;4.85;3.22;;;;;;;27.02;55.78;100315.63;5011632;28;20052;-73
2023/06/24 00:02:43;;;;;;;4.40;2.90;;;;;;;27.01;55.32;100331.22;5011724;28;20056;-74
2023/06/24 00:05:12;;;;;;;5.18;2.90;;;;;;;27.00;55.23;100334.16;5011567;28;20483;-73
2023/06/24 00:07:44;;;;;;;4.60;2.72;;;;;;;27.01;55.60;100335.84;5011308;28;20502;-73
2023/06/24 00:10:15;;;;;;;3.53;2.70;;;;;;;27.01;55.70;100346.81;5011928;28;20050;-72
2023/06/24 00:12:46;;;;;;;4.40;2.72;;;;;;;27.01;55.35;100349.53;5011554;28;20096;-75
2023/06/24 00:15:14;;;;;;;3.80;2.55;;;;;;;27.01;55.80;100358.59;4994540;28;20077;-74
2023/06/24 00:17:42;;;;;;;4.20;2.60;;;;;;;27.01;55.36;100361.34;5011468;28;20050;-74
2023/06/24 00:20:14;;;;;;;4.18;2.88;;;;;;;27.01;55.91;100360.47;5011287;28;20080;-74
2023/06/24 00:22:48;;;;;;;4.28;2.85;;;;;;;27.02;55.43;100356.69;5011360;28;20058;-73
2023/06/24 00:25:18;;;;;;;4.30;2.88;;;;;;;27.02;55.77;100353.97;5011397;28;20120;-73
2023/06/24 00:27:46;;;;;;;5.00;2.90;;;;;;;27.02;55.35;100353.97;5010688;28;20052;-74
2023/06/24 00:30:15;;;;;;;5.43;3.03;;;;;;;27.03;55.67;100347.50;4993846;28;20046;-73
2023/06/24 00:32:46;;;;;;;5.80;3.10;;;;;;;27.01;55.80;100346.81;5011066;28;20045;-73
2023/06/24 00:35:15;;;;;;;4.95;3.22;;;;;;;27.00;55.77;100345.09;5011307;28;20054;-73
2023/06/24 00:37:47;;;;;;;4.28;2.92;;;;;;;27.01;55.75;100335.84;5011215;28;20136;-72
2023/06/24 00:40:16;;;;;;;7.22;2.80;;;;;;;27.00;55.24;100331.41;5011199;28;21263;-73
2023/06/24 00:42:47;;;;;;;4.32;2.95;;;;;;;27.00;55.73;100340.47;5011026;28;20104;-73
2023/06/24 00:45:17;;;;;;;4.22;2.85;;;;;;;27.01;55.42;100336.69;5011014;28;20054;-73
2023/06/24 00:47:46;;;;;;;4.20;2.70;;;;;;;27.01;55.76;100346.81;4993829;28;20061;-74
2023/06/24 00:50:15;;;;;;;5.00;3.15;;;;;;;27.01;55.43;100339.44;5013599;28;20375;-73
2023/06/24 00:52:44;;;;;;;4.63;2.90;;;;;;;27.01;55.90;100335.84;5014415;28;20193;-73
2023/06/24 00:55:14;;;;;;;4.68;2.90;;;;;;;27.01;55.85;100322.16;5014530;28;20042;-73
2023/06/24 00:57:44;;;;;;;4.50;2.95;;;;;;;27.00;55.92;100317.75;5014618;28;20046;-73
2023/06/24 01:00:17;;;;;;;3.75;2.65;;;;;;;27.01;55.29;100303.84;5014535;28;20053;-74
2023/06/24 01:02:45;;;;;;;;;;;;;;;27.00;55.60;100293.09;5014993;28;20046;-74
2023/06/24 01:05:14;;;;;;;4.07;2.70;;;;;;;27.01;55.72;100283.84;5014425;28;19927;-73
2023/06/24 01:07:43;;;;;;;4.57;2.95;;;;;;;27.01;55.78;100283.84;5014467;28;20410;-74
2023/06/24 01:10:14;;;;;;;5.03;2.78;;;;;;;27.00;55.38;100290.38;5014317;28;20450;-74
2023/06/24 01:12:43;;;;;;;5.10;2.95;;;;;;;27.00;55.58;100290.38;5014117;28;20061;-74
2023/06/24 01:15:14;;;;;;;4.95;2.80;;;;;;;26.99;55.30;100280.47;5014429;28;20058;-74
2023/06/24 01:17:57;;;;;;;4.55;2.97;;;;;;;26.98;55.24;100274.16;5014492;28;20042;-73
2023/06/24 01:20:33;;;;;;;4.18;2.70;;;;;;;26.99;55.72;100277.72;5014078;28;20049;-74
2023/06/24 01:23:40;;;;;;;4.45;2.83;;;;;;;26.97;55.59;100260.66;5014058;28;20137;-73
2023/06/24 01:26:23;;;;;;;5.07;2.70;;;;;;;26.97;55.66;100257.94;5013896;28;20411;-73
2023/06/24 01:29:23;;;;;;;4.18;2.80;;;;;;;26.96;55.60;100261.72;5013944;28;20057;-75
2023/06/24 01:31:59;;;;;;;4.10;2.88;;;;;;;26.96;55.55;100261.72;5013467;28;20042;-74
2023/06/24 01:34:33;;;;;;;4.25;2.83;;;;;;;26.95;55.48;100260.88;5013885;28;20056;-74
2023/06/24 01:37:11;;;;;;;4.15;2.63;;;;;;;26.95;55.76;100246.34;5014015;28;20050;-74
2023/06/24 01:39:48;;;;;;;5.30;2.60;;;;;;;26.94;55.49;100253.69;5013689;28;20467;-74
2023/06/24 01:42:20;;;;;;;4.18;2.90;;;;;;;26.94;55.43;100239.19;5013658;28;20410;-75
2023/06/24 01:44:50;;;;;;;3.70;2.70;;;;;;;26.94;55.77;100247.38;5013778;28;20049;-75
2023/06/24 01:47:27;;;;;;;4.97;2.75;;;;;;;26.95;55.71;100243.59;5013669;28;20049;-74
2023/06/24 01:49:59;;;;;;;4.50;2.83;;;;;;;26.93;55.24;100245.69;5013452;28;20053;-75
2023/06/24 01:52:30;;;;;;;3.88;2.58;;;;;;;26.94;55.77;100247.38;5013165;28;20073;-74
2023/06/24 01:55:00;;;;;;;4.47;2.67;;;;;;;26.93;55.51;100251.16;5013359;28;20108;-74
2023/06/24 01:57:31;;;;;;;3.95;2.60;;;;;;;26.93;55.72;100240.22;5013552;28;20125;-75
2023/06/24 02:00:01;;;;;;;3.92;2.70;;;;;;;26.93;56.08;100240.22;5013523;28;20057;-75
2023/06/24 02:02:32;;;;;;;3.55;2.40;;;;;;;26.92;55.56;100238.50;5012880;28;20108;-74
2023/06/24 02:05:03;;;;;;;3.80;2.58;;;;;;;26.91;55.85;100243.13;5013407;28;20487;-74
2023/06/24 02:07:33;;;;;;;3.90;2.80;;;;;;;26.91;55.51;100231.34;5013443;28;20077;-75
2023/06/24 02:10:03;;;;;;;3.90;2.50;;;;;;;26.91;55.99;100232.19;5013475;28;20053;-74
2023/06/24 02:12:32;;;;;;;4.15;2.78;;;;;;;26.91;55.96;100242.28;5013731;28;20050;-73
2023/06/24 02:15:04;;;;;;;4.47;2.60;;;;;;;26.90;55.86;100241.44;5013279;28;20152;-75
2023/06/24 02:17:34;;;;;;;4.30;2.88;;;;;;;26.91;56.08;100247.75;5013378;28;20061;-75
2023/06/24 02:20:05;;;;;;;4.72;2.78;;;;;;;26.90;55.60;100246.06;5013232;28;20081;-75
2023/06/24 02:22:34;;;;;;;4.15;2.80;;;;;;;26.89;55.58;100238.91;4996253;28;20565;-75
2023/06/24 02:25:07;;;;;;;4.75;2.70;;;;;;;26.90;55.96;100237.88;5013175;28;20107;-74
2023/06/24 02:27:36;;;;;;;4.10;2.75;;;;;;;26.89;55.99;100247.13;5013143;28;20099;-75
2023/06/24 02:30:08;;;;;;;4.47;2.97;;;;;;;26.89;55.95;100249.84;5013316;28;20046;-75
2023/06/24 02:32:41;;;;;;;3.70;2.60;;;;;;;26.88;56.05;100253.63;5012844;28;20066;-75
2023/06/24 02:35:10;;;;;;;4.15;2.50;;;;;;;26.87;55.66;100251.94;5012813;28;20054;-74
2023/06/24 02:37:38;;;;;;;3.67;2.50;;;;;;;26.87;55.87;100246.47;5012939;28;20049;-74
2023/06/24 02:40:09;;;;;;;3.75;2.70;;;;;;;26.86;55.63;100248.38;5012814;28;20046;-75
2023/06/24 02:42:40;;;;;;;4.40;2.90;;;;;;;26.87;55.96;100254.69;5012559;28;20116;-75
2023/06/24 02:45:11;;;;;;;3.60;2.55;;;;;;;26.86;55.58;100255.75;5012697;28;20061;-74
2023/06/24 02:47:44;;;;;;;4.45;2.70;;;;;;;26.85;55.63;100262.25;5011590;28;20483;-75
2023/06/24 02:50:13;;;;;;;4.05;2.50;;;;;;;26.85;55.67;100259.53;5012407;28;20129;-74
2023/06/24 02:52:43;;;;;;;4.38;2.67;;;;;;;26.84;56.11;100261.41;5012231;28;20058;-73
2023/06/24 02:55:12;;;;;;;3.92;2.60;;;;;;;26.84;55.81;100255.09;5012353;28;20067;-73
2023/06/24 02:57:41;;;;;;;4.43;2.72;;;;;;;26.82;56.09;100261.59;5012339;28;20050;-74
2023/06/24 03:00:13;;;;;;;3.40;2.40;;;;;;;26.82;55.96;100267.06;5012410;28;20049;-75
2023/06/24 03:02:44;;;;;;;3.70;2.50;;;;;;;26.82;55.62;100278.00;5012352;28;20046;-73
2023/06/24 03:05:12;;;;;;;4.00;2.50;;;;;;;26.82;56.13;100288.09;5012269;28;20057;-75
2023/06/24 03:07:42;;;;;;;3.78;2.50;;;;;;;26.80;55.59;100274.63;5012099;28;20136;-75
2023/06/24 03:10:11;;;;;;;4.60;2.63;;;;;;;26.80;56.03;100269.16;5012275;28;20084;-75
2023/06/24 03:12:39;;;;;;;4.00;2.22;;;;;;;26.81;55.53;100289.16;4994562;28;20054;-75
2023/06/24 03:15:09;;;;;;;3.83;2.63;;;;;;;26.79;55.96;100294.81;5012091;28;20530;-76
2023/06/24 03:17:37;;;;;;;3.60;2.60;;;;;;;26.79;55.96;100294.81;5019851;28;20498;-74
2023/06/24 03:20:08;;;;;;;4.55;2.50;;;;;;;26.78;55.68;100284.06;5031591;28;20049;-75
2023/06/24 03:22:37;;;;;;;4.88;2.50;;;;;;;26.78;55.91;100293.13;5031537;28;20136;-75
2023/06/24 03:25:05;;;;;;;3.70;2.30;;;;;;;26.77;55.80;100296.91;5031767;28;20085;-74
2023/06/24 03:27:34;;;;;;;4.13;2.40;;;;;;;26.76;55.90;100295.22;5031782;28;20581;-74
2023/06/24 03:30:03;;;;;;;5.03;2.58;;;;;;;26.76;55.64;100297.13;5031704;28;20045;-75
2023/06/24 03:32:31;;;;;;;5.55;2.47;;;;;;;26.75;56.04;100290.81;5031597;28;20049;-74
2023/06/24 03:35:03;;;;;;;3.72;2.20;;;;;;;26.74;55.97;100289.09;5031291;28;20053;-75
2023/06/24 03:37:32;;;;;;;3.50;2.30;;;;;;;26.74;55.54;100291.84;5031366;28;20045;-75
2023/06/24 03:40:01;;;;;;;6.03;2.35;;;;;;;26.73;56.09;100290.16;5031505;28;20049;-74
2023/06/24 03:42:32;;;;;;;3.10;2.28;;;;;;;26.74;55.98;100286.38;5031431;28;20099;-74
2023/06/24 03:45:01;;;;;;;4.13;2.22;;;;;;;26.73;55.68;100301.09;5031737;28;20045;-75
2023/06/24 03:47:32;;;;;;;2.70;1.88;;;;;;;26.73;56.10;100294.75;5031295;28;20111;-73
2023/06/24 03:50:00;;;;;;;3.95;2.60;;;;;;;26.74;55.95;100301.94;5031646;28;20073;-75
2023/06/24 03:52:28;;;;;;;3.83;2.25;;;;;;;26.72;55.91;100299.38;5031414;28;20088;-75
2023/06/24 03:55:01;;;;;;;3.80;2.35;;;;;;;26.73;55.92;100319.38;5031498;28;20383;-74
2023/06/24 03:57:29;;;;;;;;;;;;;;;26.71;55.97;100327.78;5032140;28;20045;-75
2023/06/24 04:00:00;;;;;;;3.58;2.30;;;;;;;26.71;55.79;100340.63;5031130;28;19975;-75
2023/06/24 04:02:29;;;;;;;3.60;2.30;;;;;;;26.70;55.88;100342.50;5031278;28;20144;-75
2023/06/24 04:05:00;;;;;;;4.30;2.22;;;;;;;26.70;55.97;100347.97;5031530;28;20846;-75
2023/06/24 04:07:28;;;;;;;3.53;2.30;;;;;;;26.70;55.86;100345.25;5030760;28;20136;-73
2023/06/24 04:09:58;;;;;;;4.13;2.60;;;;;;;26.70;55.92;100356.19;5031287;28;20136;-75
2023/06/24 04:12:26;;;;;;;3.72;2.47;;;;;;;26.70;55.78;100356.19;5030990;28;20099;-75
2023/06/24 04:14:55;;;;;;;3.63;2.20;;;;;;;26.70;55.74;100361.66;5031489;28;20077;-74
2023/06/24 04:17:23;;;;;;;3.50;2.30;;;;;;;26.69;55.88;100351.75;5031388;28;20057;-73
2023/06/24 04:19:52;;;;;;;3.72;2.40;;;;;;;26.69;55.49;100359.13;5031063;28;20057;-73
2023/06/24 04:22:20;;;;;;;3.30;2.22;;;;;;;26.69;55.61;100359.97;5031091;28;20053;-74
2023/06/24 04:24:49;;;;;;;4.15;2.38;;;;;;;26.69;55.46;100365.44;5033092;28;20060;-75
2023/06/24 04:27:18;;;;;;;3.03;2.20;;;;;;;26.69;55.78;100354.50;5035191;28;20063;-75
2023/06/24 04:29:47;;;;;;;3.42;2.08;;;;;;;26.69;55.51;100350.91;5035011;28;20054;-75
2023/06/24 04:32:15;;;;;;;3.53;2.25;;;;;;;26.68;55.41;100350.06;5034913;28;20049;-74
2023/06/24 04:34:43;;;;;;;3.65;2.20;;;;;;;26.68;55.61;100346.50;5034813;28;20081;-75
2023/06/24 04:37:11;;;;;;;3.50;2.08;;;;;;;26.67;55.61;100334.69;5034759;28;20041;-74
2023/06/24 04:39:40;;;;;;;3.40;2.00;;;;;;;26.66;55.84;100335.75;5034567;28;20046;-74
2023/06/24 04:42:08;;;;;;;3.50;2.20;;;;;;;26.67;55.68;100342.06;5034747;28;20048;-74
2023/06/24 04:44:38;;;;;;;2.95;1.90;;;;;;;26.65;55.42;100339.53;5034824;28;20069;-74
2023/06/24 04:47:09;;;;;;;3.30;2.00;;;;;;;26.66;55.25;100343.94;5034623;28;20050;-73
2023/06/24 04:49:37;;;;;;;3.13;1.90;;;;;;;26.66;55.29;100348.56;5016972;28;20678;-73
2023/06/24 04:52:07;;;;;;;3.03;1.80;;;;;;;26.66;55.84;100345.84;5034163;28;20574;-73
2023/06/24 04:54:35;;;;;;;3.03;1.90;;;;;;;26.66;55.43;100354.91;5034620;28;20057;-73
2023/06/24 04:57:10;;;;;;;3.53;1.88;;;;;;;26.66;55.31;100356.78;5034307;28;20050;-74
2023/06/24 04:59:39;;;;;;;3.75;1.88;;;;;;;26.65;55.72;100358.69;5034347;28;20055;-74
2023/06/24 05:02:07;;;;;;;2.60;1.80;;;;;;;26.65;55.17;100347.72;5034212;28;20080;-74
2023/06/24 05:04:36;;;;;;;2.55;1.73;;;;;;;26.65;55.49;100353.22;5034186;28;20049;-75
2023/06/24 05:07:04;;;;;;;2.85;1.90;;;;;;;26.65;55.42;100353.22;5034218;28;20050;-74
2023/06/24 05:09:33;;;;;;;3.92;2.35;;;;;;;26.65;55.71;100347.72;5034274;28;20049;-74
2023/06/24 05:12:01;;;;;;;3.22;1.90;;;;;;;26.65;55.79;100352.34;5034190;28;20053;-73
2023/06/24 05:14:31;;;;;;;2.70;1.70;;;;;;;26.65;55.76;100342.25;5033765;28;20073;-74
2023/06/24 05:17:01;;;;;;;4.38;2.10;;;;;;;26.67;55.83;100361.22;5033833;28;20057;-73
2023/06/24 05:19:31;;;;;;;3.00;1.77;;;;;;;26.66;55.32;100349.44;5033940;28;20080;-74
2023/06/24 05:22:00;;;;;;;2.42;1.67;;;;;;;26.67;55.29;100370.25;5032288;28;20150;-74
2023/06/24 05:24:28;;;;;;;3.00;1.90;;;;;;;26.68;55.56;100371.13;5033916;28;20099;-73
2023/06/24 05:26:56;;;;;;;2.95;1.80;;;;;;;26.66;55.62;100365.00;5033668;28;20050;-74
2023/06/24 05:29:25;;;;;;;2.65;1.70;;;;;;;26.67;55.29;100370.25;5033253;28;20046;-74
2023/06/24 05:31:55;;;;;;;3.05;1.80;;;;;;;26.68;55.61;100374.69;5033503;28;20099;-74
2023/06/24 05:34:25;;;;;;;2.92;1.73;;;;;;;26.68;55.25;100382.91;5016670;28;20049;-73
2023/06/24 05:36:53;;;;;;;3.00;1.80;;;;;;;26.67;55.25;100377.63;5033700;28;20123;-74
2023/06/24 05:39:21;;;;;;;3.15;1.70;;;;;;;26.67;55.51;100373.00;5033201;28;20117;-75
2023/06/24 05:41:52;;;;;;;3.53;1.80;;;;;;;26.68;55.25;100374.69;5022561;28;20112;-75
2023/06/24 05:44:22;;;;;;;2.90;1.75;;;;;;;26.68;55.73;100382.91;5013633;28;20057;-74
2023/06/24 05:46:53;;;;;;;2.25;1.45;;;;;;;26.70;55.61;100389.03;5014136;28;20058;-73
2023/06/24 05:49:21;;;;;;;2.25;1.42;;;;;;;26.69;55.27;100387.34;5013934;28;20046;-74
2023/06/24 05:51:58;;;;;;;2.55;1.63;;;;;;;26.68;55.18;100393.84;5013654;28;20483;-74
2023/06/24 05:54:27;;;;;;;2.65;1.48;;;;;;;26.70;55.26;100394.50;5013478;28;20053;-74
2023/06/24 05:56:55;;;;;;;4.20;1.58;;;;;;;26.69;54.99;100402.91;5013387;28;20054;-73
2023/06/24 05:59:23;;;;;;;2.30;1.40;;;;;;;26.68;55.40;100396.59;5013109;28;20050;-73
2023/06/24 06:01:52;;;;;;;2.42;1.40;;;;;;;26.68;55.36;100410.25;5013551;28;20116;-68
2023/06/24 06:04:20;;;;;;;2.00;1.50;;;;;;;26.68;55.32;100396.59;5013399;28;20376;-73
2023/06/24 06:06:49;;;;;;;3.75;1.45;;;;;;;26.68;55.78;100404.78;5013420;28;20049;-74
2023/06/24 06:09:23;;;;;;;2.03;1.40;;;;;;;26.68;55.33;100402.06;5013204;28;20529;-74
2023/06/24 06:11:51;;;;;;;2.67;1.60;;;;;;;26.68;55.35;100398.47;5013018;28;20115;-75
2023/06/24 06:14:19;;;;;;;1.95;1.40;;;;;;;26.68;55.68;100402.06;5013364;28;20085;-77
2023/06/24 06:16:48;;;;;;;2.08;1.50;;;;;;;26.67;55.07;100405.84;5013108;28;20128;-76
2023/06/24 06:19:16;;;;;;;2.63;1.23;;;;;;;26.66;55.17;100409.63;5020259;28;20041;-68
2023/06/24 06:21:44;;;;;;;1.92;1.30;;;;;;;26.64;54.88;100413.59;5032504;28;20038;-79
2023/06/24 06:24:12;;;;;;;2.95;1.45;;;;;;;26.62;55.16;100413.75;5032298;28;20057;-76
2023/06/24 06:26:44;;;;;;;2.10;1.30;;;;;;;26.60;54.67;100423.19;5032778;28;20407;-71
2023/06/24 06:29:12;;;;;;;2.27;1.40;;;;;;;26.58;54.55;100423.41;5032740;28;20128;-70
2023/06/24 06:31:43;;;;;;;2.80;1.60;;;;;;;26.57;54.38;100421.72;5032467;28;20049;-72
2023/06/24 06:34:12;;;;;;;1.83;1.23;;;;;;;26.57;54.61;100426.34;5032464;28;20056;-72
2023/06/24 06:36:40;;;;;;;2.53;1.33;;;;;;;26.55;54.28;100426.53;5032238;28;20049;-71
2023/06/24 06:39:08;;;;;;;1.95;1.25;;;;;;;26.53;54.51;100432.16;5031976;28;20042;-73
2023/06/24 06:41:37;;;;;;;3.00;1.20;;;;;;;26.52;53.99;100435.09;5029712;28;20098;-70
2023/06/24 06:44:06;;;;;;;2.75;1.23;;;;;;;26.51;53.91;100439.72;5032200;28;20095;-72
2023/06/24 06:46:35;;;;;;;2.45;1.10;;;;;;;26.49;53.77;100427.28;5028400;28;20091;-72
2023/06/24 06:49:05;;;;;;;1.58;0.95;;;;;;;26.49;53.80;100451.91;5031736;28;20516;-70
2023/06/24 06:51:40;;;;;;;1.63;1.20;;;;;;;26.50;53.90;100442.66;5029830;28;20421;-70
2023/06/24 06:54:08;;;;;;;2.47;1.20;;;;;;;26.50;53.46;100445.38;5031780;28;20045;-69
2023/06/24 06:56:37;;;;;;;2.58;1.23;;;;;;;26.48;53.48;100442.00;5031766;28;20049;-69
2023/06/24 06:59:08;;;;;;;4.20;0.90;;;;;;;26.47;53.66;100437.56;5014134;28;20502;-70
2023/06/24 07:01:36;;;;;;;2.97;0.90;;;;;;;26.47;53.61;100440.31;5023876;28;20077;-70
2023/06/24 07:04:04;;;;;;;1.42;1.08;;;;;;;26.46;53.54;100438.63;5031663;28;20061;-70
2023/06/24 07:06:33;;;;;;;1.98;0.88;;;;;;;26.46;53.18;100442.19;5031328;28;20060;-69
2023/06/24 07:09:01;;;;;;;2.92;1.40;;;;;;;26.46;53.67;100435.88;5027980;28;20050;-70
2023/06/24 07:11:32;;;;;;;5.40;1.50;;;;;;;26.46;53.66;100435.88;5026581;28;20079;-69
2023/06/24 07:14:00;;;;;;;2.75;1.40;;;;;;;26.45;53.53;100434.19;5031183;28;20500;-69
2023/06/24 07:16:30;;;;;;;3.17;1.40;;;;;;;26.45;53.30;100428.72;5031096;28;20052;-69
2023/06/24 07:19:01;;;;;;;3.28;1.25;;;;;;;26.45;53.66;100434.19;5031126;28;20352;-69
2023/06/24 07:21:29;;;;;;;3.45;1.20;;;;;;;26.43;53.11;100442.56;5029351;28;20437;-69
2023/06/24 07:23:58;;;;;;;2.53;1.23;;;;;;;26.43;53.24;100437.09;5031360;28;20046;-69
2023/06/24 07:26:28;;;;;;;1.40;1.05;;;;;;;26.43;53.55;100436.25;5028044;28;20060;-69
2023/06/24 07:28:58;;;;;;;1.90;1.10;;;;;;;26.43;53.81;100441.72;5029778;28;20045;-69
2023/06/24 07:31:38;;;;;;;2.83;1.00;;;;;;;26.42;53.61;100445.50;5029772;28;20609;-69
2023/06/24 07:34:06;;;;;;;2.25;1.08;;;;;;;26.42;53.54;100440.03;5028051;28;20068;-68
2023/06/24 07:36:34;;;;;;;2.33;0.90;;;;;;;26.42;53.68;100434.53;5030717;28;20053;-68
2023/06/24 07:39:05;;;;;;;2.55;1.10;;;;;;;26.43;53.82;100449.91;5031371;28;20053;-69
2023/06/24 07:41:34;;;;;;;2.40;1.13;;;;;;;26.43;53.28;100458.13;5031335;28;20049;-69
2023/06/24 07:44:02;;;;;;;3.40;1.30;;;;;;;26.42;53.57;100446.34;5031100;28;20060;-69
2023/06/24 07:46:30;;;;;;;2.45;1.20;;;;;;;26.43;53.50;100458.97;5031236;28;20482;-68
2023/06/24 07:49:00;;;;;;;2.55;1.20;;;;;;;26.43;53.44;100463.59;5031235;28;20049;-70
2023/06/24 07:51:28;;;;;;;5.28;1.25;;;;;;;26.43;53.35;100469.91;5030790;28;20414;-69
2023/06/24 07:53:56;;;;;;;1.90;1.13;;;;;;;26.44;53.53;100465.28;5031076;28;20049;-69
2023/06/24 07:56:24;;;;;;;2.05;1.00;;;;;;;26.44;53.87;100452.50;5030994;28;20471;-69
2023/06/24 07:58:53;;;;;;;1.25;0.98;;;;;;;26.45;53.60;100458.81;5031802;28;20100;-69
2023/06/24 08:01:22;;;;;;;2.63;1.27;;;;;;;26.46;53.27;100455.03;5035381;28;20069;-68
2023/06/24 08:03:50;;;;;;;2.60;1.10;;;;;;;26.46;53.66;100457.75;5035183;28;20080;-68
2023/06/24 08:06:20;;;;;;;1.17;1.00;;;;;;;26.47;53.32;100457.56;5034938;28;20083;-69
2023/06/24 08:08:49;;;;;;;1.63;1.08;;;;;;;26.47;53.31;100457.56;5034869;28;20182;-68
2023/06/24 08:11:17;;;;;;;2.70;1.05;;;;;;;26.47;53.62;100448.50;5035264;28;20379;-68
2023/06/24 08:13:45;;;;;;;2.35;1.20;;;;;;;26.47;53.64;100465.78;5035042;28;20049;-68
2023/06/24 08:16:16;;;;;;;1.42;1.00;;;;;;;26.47;53.65;100456.72;5035114;28;20041;-68
2023/06/24 08:18:44;;;;;;;1.98;1.20;;;;;;;26.48;53.46;100458.41;5034861;28;20102;-68
2023/06/24 08:21:12;;;;;;;3.08;1.10;;;;;;;26.48;53.21;100450.22;5034992;28;20050;-68
2023/06/24 08:23:41;;;;;;;2.88;1.13;;;;;;;26.49;53.40;100452.75;5035019;28;20065;-69
2023/06/24 08:26:10;;;;;;;2.80;1.30;;;;;;;26.49;53.34;100458.22;5033264;28;20053;-68
2023/06/24 08:28:46;;;;;;;3.00;1.40;;;;;;;26.49;53.27;100457.38;5034909;28;20073;-69
2023/06/24 08:31:14;;;;;;;1.15;0.90;;;;;;;26.50;53.50;100459.06;5034609;28;20099;-68
2023/06/24 08:33:45;;;;;;;1.73;1.13;;;;;;;26.51;53.47;100458.03;5034210;28;20505;-68
2023/06/24 08:36:13;;;;;;;1.90;0.93;;;;;;;26.52;53.92;100459.72;5034243;28;20084;-68
2023/06/24 08:38:43;;;;;;;3.10;1.20;;;;;;;26.53;53.83;100458.66;5031214;28;20048;-68
2023/06/24 08:41:11;;;;;;;1.50;1.00;;;;;;;26.53;53.63;100469.59;5033633;28;20491;-68
2023/06/24 08:43:40;;;;;;;3.80;1.38;;;;;;;26.55;53.80;100467.56;5034353;28;20141;-68
2023/06/24 08:46:09;;;;;;;1.10;0.90;;;;;;;26.56;53.33;100468.41;5033916;28;20049;-68
2023/06/24 08:48:40;;;;;;;3.00;1.40;;;;;;;26.56;53.58;100463.78;5034130;28;20490;-66
2023/06/24 08:51:09;;;;;;;1.75;1.20;;;;;;;26.57;53.80;100462.75;5029349;28;20053;-68
2023/06/24 08:53:39;;;;;;;2.35;1.00;;;;;;;26.58;53.93;100456.22;5034093;28;20056;-67
2023/06/24 08:56:09;;;;;;;2.65;1.45;;;;;;;26.61;53.59;100464.03;5033939;28;20041;-67
2023/06/24 08:58:38;;;;;;;2.30;1.10;;;;;;;26.60;54.05;100465.09;5033301;28;20051;-66
2023/06/24 09:01:07;;;;;;;1.83;1.25;;;;;;;26.62;53.88;100456.69;5033909;28;20057;-68
2023/06/24 09:03:36;;;;;;;2.25;1.27;;;;;;;26.62;53.85;100449.31;5031113;28;20052;-68
2023/06/24 09:06:04;;;;;;;2.17;1.40;;;;;;;26.62;53.62;100459.41;5033811;28;20136;-68
2023/06/24 09:08:35;;;;;;;1.58;1.17;;;;;;;26.62;53.81;100463.00;5033698;28;20449;-68
2023/06/24 09:11:04;;;;;;;2.03;1.30;;;;;;;26.62;53.98;100463.00;5033636;28;20080;-69
2023/06/24 09:13:36;;;;;;;2.15;1.38;;;;;;;26.61;53.12;100458.56;5033341;28;20051;-68
2023/06/24 09:16:14;;;;;;;5.90;1.50;;;;;;;26.61;53.44;100455.00;5016908;28;20517;-69
2023/06/24 09:18:48;;;;;;;2.97;1.50;;;;;;;26.61;52.96;100449.50;5033927;28;20049;-68
2023/06/24 09:21:22;;;;;;;1.75;1.30;;;;;;;26.58;53.17;100438.97;5022388;28;20050;-65
2023/06/24 09:23:53;;;;;;;3.15;1.70;;;;;;;26.56;52.48;100458.31;5029918;28;20077;-65
2023/06/24 09:26:24;;;;;;;2.70;1.65;;;;;;;26.54;52.61;100457.66;5031586;28;20067;-65
2023/06/24 09:28:54;;;;;;;2.88;1.60;;;;;;;26.53;52.07;100466.88;5025281;28;20511;-65
2023/06/24 09:31:24;;;;;;;2.95;1.50;;;;;;;26.51;52.56;100466.22;5025984;28;20046;-65
2023/06/24 09:33:57;;;;;;;3.58;1.55;;;;;;;26.51;52.36;100477.16;5016936;28;20056;-65
2023/06/24 09:36:25;;;;;;;4.75;1.90;;;;;;;26.49;52.37;100468.31;5028633;28;20045;-65
2023/06/24 09:38:57;;;;;;;16.98;4.50;;;;;;;26.46;52.51;100464.06;5022330;28;20129;-64
2023/06/24 09:41:41;;;;;;;18.07;4.47;;;;;;;26.45;53.07;100464.28;5018981;28;20046;-65
2023/06/24 09:44:12;;;;;;;10.68;3.92;;;;;;;26.45;52.74;100464.28;5029877;28;20362;-65
2023/06/24 09:46:43;;;;;;;15.27;4.05;;;;;;;26.46;53.22;100463.22;5013811;28;20046;-67
2023/06/24 09:49:12;;;;;;;11.98;3.45;;;;;;;26.50;52.78;100470.00;5024394;28;20045;-67
2023/06/24 09:51:43;;;;;;;9.50;2.95;;;;;;;26.51;52.88;100460.75;5018421;28;20054;-66
2023/06/24 09:54:13;;;;;;;9.77;3.00;;;;;;;26.52;52.84;100454.25;5029665;28;20049;-66
2023/06/24 09:56:44;;;;;;;6.63;2.13;;;;;;;26.51;52.51;100458.88;5019899;28;20474;-65
2023/06/24 09:59:15;;;;;;;6.53;2.00;;;;;;;26.52;52.63;100451.50;5022172;28;20060;-66
2023/06/24 10:01:45;;;;;;;4.65;2.25;;;;;;;26.54;52.97;100463.13;5028260;28;20046;-65
2023/06/24 10:04:17;;;;;;;6.35;1.90;;;;;;;26.55;53.10;100450.31;5016454;28;20045;-65
2023/06/24 10:06:46;;;;;;;4.15;2.00;;;;;;;26.56;52.88;100443.78;5025464;28;20096;-65
2023/06/24 10:09:16;;;;;;;4.75;2.05;;;;;;;26.57;52.89;100445.47;5024332;28;20049;-65
2023/06/24 10:11:45;;;;;;;3.53;1.75;;;;;;;26.57;53.26;100443.59;5017311;28;20128;-66
2023/06/24 10:14:18;;;;;;;3.25;1.65;;;;;;;26.56;53.34;100441.06;5029135;28;20081;-66
2023/06/24 10:16:47;;;;;;;4.13;1.98;;;;;;;26.55;53.16;100436.63;5020365;28;20041;-63
2023/06/24 10:19:22;;;;;;;3.42;1.73;;;;;;;26.53;52.95;100423.97;5029130;28;20490;-68
2023/06/24 10:21:52;;;;;;;4.75;1.75;;;;;;;26.53;52.94;100426.69;5017885;28;20046;-62
2023/06/24 10:24:31;;;;;;;3.70;1.70;;;;;;;26.55;53.62;100415.59;5016445;28;20045;-62
2023/06/24 10:27:04;;;;;;;4.10;1.70;;;;;;;26.57;53.17;100416.25;5023396;28;20056;-64
2023/06/24 10:29:35;;;;;;;3.03;1.67;;;;;;;26.58;53.59;100417.94;5026381;28;20045;-64
2023/06/24 10:32:06;;;;;;;3.45;1.77;;;;;;;26.59;53.47;100418.78;5016132;28;20069;-64
2023/06/24 10:34:41;;;;;;;3.05;1.80;;;;;;;26.61;53.54;100411.22;5009155;28;20577;-63
2023/06/24 10:37:12;;;;;;;2.70;1.70;;;;;;;26.62;53.57;100413.75;5023027;28;20124;-63
2023/06/24 10:39:48;;;;;;;2.75;1.67;;;;;;;26.63;53.18;100411.88;5017404;28;20049;-63
2023/06/24 10:42:30;;;;;;;3.38;1.85;;;;;;;26.65;53.10;100413.38;5031924;28;20049;-63
2023/06/24 10:45:01;;;;;;;4.88;2.22;;;;;;;26.65;53.74;100405.19;5022999;28;20046;-64
2023/06/24 10:47:31;;;;;;;3.78;1.90;;;;;;;26.65;53.47;100407.91;5025636;28;20045;-63
2023/06/24 10:49:59;;;;;;;2.70;1.80;;;;;;;26.66;53.07;100409.63;5015322;28;20522;-62
2023/06/24 10:52:27;;;;;;;3.75;1.77;;;;;;;26.68;53.21;100402.06;5026598;28;20053;-64
2023/06/24 10:54:57;;;;;;;6.35;1.70;;;;;;;26.70;53.22;100410.91;5020912;28;20046;-64
2023/06/24 10:57:27;;;;;;;4.30;1.77;;;;;;;26.71;53.19;100409.88;5029498;28;20060;-64
2023/06/24 10:59:57;;;;;;;3.58;1.90;;;;;;;26.72;53.31;100417.03;5028542;28;20049;-61
2023/06/24 11:02:28;;;;;;;3.50;1.77;;;;;;;26.76;53.58;100417.50;5025362;28;20050;-61
2023/06/24 11:04:58;;;;;;;2.50;1.70;;;;;;;26.77;52.98;100411.00;5028538;28;20122;-61
2023/06/24 11:07:28;;;;;;;2.55;1.75;;;;;;;26.79;52.84;100412.47;5028522;28;20407;-60
2023/06/24 11:10:20;;;;;;;3.05;1.60;;;;;;;26.78;53.16;100419.00;5023425;28;20053;-64
2023/06/24 11:16:06;;;;;;;2.92;1.60;;;;;;;26.84;52.94;100422.03;5001805;28;20045;-62
2023/06/24 11:18:39;;;;;;;4.03;1.70;;;;;;;26.87;53.09;100421.63;5031228;28;20107;-64
2023/06/24 11:21:10;;;;;;;2.58;1.60;;;;;;;26.89;52.81;100416.78;5031270;28;20053;-64
2023/06/24 11:23:39;;;;;;;1.98;1.50;;;;;;;26.92;52.83;100419.97;5030762;28;20049;-64
2023/06/24 11:26:07;;;;;;;2.78;1.65;;;;;;;26.92;52.98;100419.97;5031367;28;20049;-63
2023/06/24 11:28:35;;;;;;;2.05;1.60;;;;;;;26.98;53.28;100418.38;5030603;28;20100;-63
2023/06/24 11:31:08;;;;;;;2.80;1.52;;;;;;;27.03;52.84;100405.00;5029451;28;20466;-63
2023/06/24 11:33:36;;;;;;;;;;;;;;;27.07;52.75;100406.28;5029975;28;20064;-62
2023/06/24 11:36:11;;;;;;;2.83;1.70;;;;;;;27.11;53.03;100396.63;5030149;28;19921;-62
2023/06/24 11:38:39;;;;;;;2.70;1.40;;;;;;;27.12;52.95;100395.59;5029975;28;20558;-62
2023/06/24 11:41:07;;;;;;;2.88;1.42;;;;;;;27.16;52.72;100399.63;5030780;28;20050;-63
2023/06/24 11:43:35;;;;;;;2.40;1.50;;;;;;;27.21;52.93;100393.56;5030716;28;20050;-63